ソチ空港の過去48時間の天気

ソチ空港 (Adler)

現在時刻: 4/21 03:26 MSK (4/21 00:26 UTC) 以下の時間は現地時間です。

過去48時間のMETAR気象情報
時間 風向 風速(m/s) 視程 気温(℃) 湿度(%) 気圧(hPa) 天気現象
21 03:00 東北東 2 10km以上 7 100 1011
21 02:30 東北東 2 10km以上 7 93 1011
21 02:00 静穏 0 10km以上 8 93 1011
21 01:30 1 10km以上 9 93 1012
21 01:00 静穏 0 10km以上 9 100 1012
21 00:30 北北西 1 10km以上 10 94 1012
21 00:00 東北東 2 10km以上 10 94 1012
20 23:30 東北東 3 10km以上 10 94 1012
20 23:00 3 10km以上 10 94 1012
20 22:30 2 9,000m 10 94 1012 弱いしゅう雨
20 22:00 北西 2 7,000m 10 94 1012 弱いしゅう雨
20 21:30 北西 1 6,000m 10 94 1012 弱いしゅう雨
20 21:00 北西 3 10km以上 11 87 1012 弱いしゅう雨
20 20:30 2 10km以上 11 87 1012
20 20:00 西北西 2 10km以上 12 77 1012 弱いしゅう雨
20 19:30 北西 3 10km以上 12 71 1011
20 19:00 西北西 4 10km以上 12 77 1011
20 18:30 北西 3 10km以上 13 72 1011
20 18:00 西 4 10km以上 13 77 1011
20 17:30 西北西 5 10km以上 13 72 1011
20 17:00 西 6 10km以上 14 72 1011
20 16:30 南南西 2 10km以上 13 77 1011
20 16:00 北西 1 10km以上 14 72 1011
20 15:30 北東 1 10km以上 13 77 1011
20 15:00 3 10km以上 13 77 1011
20 14:30 4 10km以上 13 82 1010
20 14:00 東北東 4 10km以上 12 88 1010
20 13:30 北北東 2 10km以上 12 88 1010
20 13:00 南東 3 10km以上 12 88 1010
20 12:30 南西 4 9,000m 11 87 1009 弱いしゅう雨
20 12:00 南南西 4 10km以上 12 88 1009 周辺で雷 弱いしゅう雨
20 11:30 南西 3 2,300m 12 94 1009 強い雷雨
20 11:29 南西 3 2,300m 12 94 1009 強い雷雨
20 11:11 南南東 4 7,000m 12 88 1009 弱いしゅう雨
20 11:00 南南東 5 10km以上 13 82 1009 弱いしゅう雨
20 10:30 南南東 5 9,000m 13 88 1009 弱いしゅう雨
20 10:00 5 9,000m 13 77 1009 弱いしゅう雨
20 09:30 南東 7 10km以上 13 82 1009
20 09:00 東南東 5 10km以上 13 82 1009
20 08:30 東南東 4 10km以上 13 88 1009
20 08:00 東南東 4 9,000m 12 82 1009 弱いしゅう雨
20 07:30 南南東 5 10km以上 13 82 1009 弱いしゅう雨
20 07:00 3 10km以上 13 82 1009 弱いしゅう雨
20 06:30 4 10km以上 13 82 1009 弱いしゅう雨
20 06:00 3 10km以上 13 82 1009
20 05:30 南南東 4 10km以上 13 82 1009
20 05:00 南南東 5 10km以上 13 82 1010
20 04:30 南東 4 10km以上 13 77 1010
20 04:00 南南東 3 10km以上 13 82 1010
20 03:30 南東 4 10km以上 13 82 1010
20 03:00 南東 4 10km以上 13 77 1011
20 02:30 4 10km以上 13 88 1011
20 02:00 4 10km以上 13 88 1011
20 01:30 4 10km以上 13 88 1011
20 01:00 5 10km以上 13 88 1012
20 00:30 南南西 5 10km以上 13 88 1012
20 00:00 南南西 6 10km以上 13 88 1012
19 23:30 5 10km以上 13 88 1012 弱いしゅう雨
19 23:00 南南東 7 10km以上 13 82 1013
19 22:30 南南東 7 10km以上 13 82 1013
19 22:00 南東 5 10km以上 13 82 1013
19 21:30 南南東 7 10km以上 13 82 1013
19 21:00 南東 7 10km以上 13 77 1014 弱いしゅう雨
19 20:30 南南東 7 10km以上 13 82 1014 弱いしゅう雨
19 20:00 南南東 7 10km以上 14 77 1014 弱いしゅう雨
19 19:30 南南東 7 10km以上 14 72 1014
19 19:00 南南東 6 10km以上 14 77 1014
19 18:30 5 10km以上 14 77 1015
19 18:00 5 10km以上 14 77 1015
19 17:30 6 10km以上 14 72 1015
19 17:00 4 10km以上 14 72 1015
19 16:30 南東 6 10km以上 15 72 1015
19 16:00 南東 6 10km以上 15 72 1015
19 15:30 南東 6 10km以上 14 82 1015
19 15:00 南東 4 10km以上 14 82 1016
19 14:30 南南東 5 10km以上 14 82 1016 弱いしゅう雨
19 14:00 南東 4 10km以上 14 82 1017 弱いしゅう雨
19 13:30 南南東 5 10km以上 14 82 1017 弱いしゅう雨
19 13:00 南南東 5 10km以上 14 82 1017 弱いしゅう雨
19 12:30 南南東 6 10km以上 15 77 1017 弱いしゅう雨
19 12:00 南南東 5 10km以上 14 77 1018 弱いしゅう雨
19 11:30 南南東 4 10km以上 14 82 1018 弱いしゅう雨
19 11:00 南南東 4 10km以上 14 88 1018 弱いしゅう雨
19 10:30 南南西 4 10km以上 14 82 1019
19 10:00 南西 5 10km以上 14 88 1018
19 09:30 南南西 3 10km以上 15 82 1018
19 09:00 南東 4 10km以上 14 77 1017
19 08:30 4 10km以上 14 72 1018
19 08:00 東北東 3 10km以上 13 67 1017
19 07:30 東北東 4 10km以上 12 77 1018
19 07:00 東北東 4 10km以上 10 87 1019
19 06:30 東北東 3 10km以上 10 87 1019
19 06:00 静穏 0 10km以上 10 82 1019
19 05:30 3 10km以上 9 87 1018
19 05:00 静穏 0 10km以上 9 87 1018
19 04:30 2 10km以上 10 82 1018
19 04:00 東北東 2 10km以上 9 81 1018
19 03:30 静穏 0 10km以上 10 76 1018
URSS 210000Z 06002MPS 9999 BKN100 07/07 Q1011 R06/290055 R02/////// NOSIG RMK R02/04003MPS QFE757
URSS 202330Z 06002MPS 9999 FEW100 07/06 Q1011 R06/290055 R02/////// NOSIG RMK R02/05003MPS QFE757
URSS 202300Z 00000MPS 9999 FEW100 08/07 Q1011 WS ALL RWY R06/290055 R02/////// NOSIG RMK R02/05002MPS QFE758
URSS 202230Z 01001MPS 9999 SCT100 09/08 Q1012 WS ALL RWY R06/290055 R02/////// NOSIG RMK R02/05002MPS QFE758
URSS 202200Z 00000MPS 9999 FEW050CB BKN100 09/09 Q1012 WS ALL RWY R06/290055 R02/////// NOSIG RMK R02/03002MPS QFE758
URSS 202130Z 33001MPS 9999 FEW050CB BKN100 10/09 Q1012 WS ALL RWY R06/290055 R02/////// NOSIG RMK R02/03001MPS QFE758
URSS 202100Z 06002MPS 9999 SCT050CB OVC076 10/09 Q1012 WS ALL RWY R06/290055 R02/////// NOSIG RMK R02/04002MPS QFE758
URSS 202030Z 06003MPS 9999 SCT050CB OVC076 10/09 Q1012 WS ALL RWY R06/290055 R02/////// NOSIG RMK R02/05002MPS QFE758
URSS 202000Z 08003MPS 9999 BKN046CB OVC076 10/09 Q1012 WS ALL RWY R06/290055 R02/////// NOSIG RMK R02/06002MPS QFE758
URSS 201930Z 08002MPS 9000 -SHRA OVC043CB 10/09 Q1012 WS ALL RWY R06/290055 R02/////// NOSIG RMK R02/07001MPS MT OBSC QFE758
URSS 201900Z 32002MPS 7000 -SHRA OVC043CB 10/09 Q1012 WS ALL RWY R06/290055 R02/////// NOSIG RMK R02/31003MPS MT OBSC QFE758
URSS 201830Z 32001MPS 6000 -SHRA OVC043CB 10/09 Q1012 WS ALL RWY R06/290055 R02/////// NOSIG RMK R02/32001MPS MT OBSC QFE758
URSS 201800Z 31003MPS 9999 -SHRA OVC043CB 11/09 Q1012 WS ALL RWY R06/190060 R02/////// NOSIG RMK R02/02002MPS MT OBSC QFE758
URSS 201730Z 10002MPS 9999 BKN060CB OVC090 11/09 Q1012 WS ALL RWY R06/090070 R02/////// NOSIG RMK R02/06002MPS QFE758
URSS 201700Z 30002MPS 260V350 9999 -SHRA BKN050CB OVC090 12/08 Q1012 WS ALL RWY R06/090070 R02/////// NOSIG RMK R02/05001MPS QFE758
URSS 201630Z 31003MPS 9999 SCT026 BKN090 12/07 Q1011 WS ALL RWY R06/090070 R02/////// NOSIG RMK R02/03001MPS MT OBSC QFE757
URSS 201600Z 29004MPS 9999 SCT026 BKN090 12/08 Q1011 WS ALL RWY R06/090070 R02/////// NOSIG RMK R02/30002MPS MT OBSC QFE757
URSS 201530Z 31003MPS 9999 SCT026TCU BKN083 13/08 Q1011 WS ALL RWY R06/090070 R02/////// NOSIG RMK R02/29003MPS MT OBSC QFE757
URSS 201500Z 28004MPS 9999 SCT026TCU BKN090 13/09 Q1011 WS ALL RWY R06/090070 R02/////// NOSIG RMK R02/30004G07MPS MT OBSC QFE757
URSS 201430Z 29005MPS 9999 SCT030CB 13/08 Q1011 WS ALL RWY R06/090070 R02/////// NOSIG RMK R02/29004G07MPS MT OBSC QFE757
URSS 201400Z 28006MPS 9999 BKN027CB 14/09 Q1011 WS ALL RWY R06/090070 R02/////// NOSIG RMK R02/30004G08MPS MT OBSC QFE757
URSS 201330Z 20002MPS 9999 BKN025CB BKN090 13/09 Q1011 WS ALL RWY R06/090070 R02/////// NOSIG RMK R02/04003MPS MT OBSC QFE757
URSS 201300Z 32001MPS 9999 BKN030CB BKN090 14/09 Q1011 WS ALL RWY R06/090070 R02/////// NOSIG RMK R02/04002MPS MT OBSC QFE757
URSS 201230Z 05001MPS 9999 SCT040CB BKN090 13/09 Q1011 WS ALL RWY R06/090070 R02/////// NOSIG RMK R02/05001MPS MT OBSC QFE757
URSS 201200Z 08003MPS 9999 SCT040CB BKN090 13/09 Q1011 WS ALL RWY R06/190060 R02/////// NOSIG RMK R02/04003MPS MT OBSC QFE757
URSS 201130Z 08004MPS 9999 FEW013 SCT040CB BKN090 13/10 Q1010 WS ALL RWY R06/190060 R02/////// NOSIG RMK R02/04003MPS MT OBSC QFE757
URSS 201100Z 07004MPS 9999 SCT016 BKN050CB 12/10 Q1010 WS ALL RWY R06/190060 R02/////// TEMPO -TSRA BKN010 BKN020CB RMK R02/06002MPS MT OBSC QFE756
URSS 201030Z 03002MPS 340V070 9999 BKN016 BKN033CB 12/10 Q1010 WS ALL RWY R06/250350 R02/////// TEMPO -TSRA BKN010 BKN020CB RMK R02/05002G05MPS MT OBSC QFE756
URSS 201000Z 13003MPS 9999 SCT010 OVC030CB 12/10 Q1010 WS ALL RWY R06/250350 R02/////// TEMPO -TSRA BKN010 BKN020CB RMK R02/12002MPS MT OBSC QFE756
URSS 200930Z 23004MPS 9000 -SHRA SCT010 OVC030CB 11/09 Q1009 WS ALL RWY R06/250350 R02/////// TEMPO -TSRA BKN010 BKN020CB RMK R02/22003MPS MT OBSC QFE756
URSS 200900Z 21004MPS 9999 4600S VCTS -SHRA SCT010 OVC030CB 12/10 Q1009 WS ALL RWY R06/250350 R02/////// TEMPO 1000 TSRA BKN006 BKN015CB RMK R02/21004MPS MT OBSC QFE756
URSS 200830Z 23003MPS 190V270 2300 0450S +TSRA SCT009 OVC025CB 12/11 Q1009 WS ALL RWY R06/250350 R02/////// TEMPO 1000 TSRA BKN006 BKN015CB RMK R02/21006G09MPS MT OBSC QFE756
URSS 200829Z 23003MPS 190V270 2300 0400S +TSRA SCT009 OVC025CB 12/11 Q1009 WS ALL RWY R06/250350 R02/////// TEMPO 1000 TSRA BKN006 BKN015CB RMK R02/21006G09MPS MT OBSC QFE756
URSS 200811Z 16004MPS 120V220 7000 -SHRA SCT010 OVC030CB 12/10 Q1009 WS ALL RWY R06/290055 R02/////// TEMPO -TSRA BKN006 BKN015CB RMK R02/15003G06MPS MT OBSC QFE756
URSS 200800Z 15005MPS 9999 -SHRA FEW015 OVC030CB 13/10 Q1009 WS ALL RWY R06/290055 R02/////// TEMPO -TSRA BKN006 BKN015CB RMK R02/14004G07MPS MT OBSC QFE755
URSS 200730Z 15005MPS 9000 -SHRA FEW015 BKN033CB OVC080 13/11 Q1009 WS ALL RWY R06/290055 R02/////// TEMPO -TSRA BKN006 BKN015CB RMK R02/15005G08MPS MT OBSC QFE755
URSS 200700Z 18005MPS 140V210 9000 -SHRA SCT015 BKN030CB OVC080 13/09 Q1009 WS ALL RWY R06/190060 R02/////// NOSIG RMK R02/14005G09MPS MT OBSC QFE756
URSS 200630Z 14007MPS 9999 FEW015 BKN030CB OVC080 13/10 Q1009 WS ALL RWY R06/290055 R02/////// NOSIG RMK R02/14005G09MPS MT OBSC QFE755
URSS 200600Z 11005MPS 9999 FEW015 BKN030CB OVC080 13/10 Q1009 WS ALL RWY R06/290055 R02/////// NOSIG RMK R02/13003G08MPS MT OBSC QFE755
URSS 200530Z 12004MPS 9999 SCT014 BKN050CB OVC080 13/11 Q1009 WS ALL RWY R06/290055 R02/////// NOSIG RMK R02/13004G07MPS MT OBSC QFE755
URSS 200500Z 12004MPS 9000 -SHRA SCT018 BKN038CB OVC083 12/09 Q1009 WS ALL RWY R06/290055 R02/////// NOSIG RMK R02/13003MPS MT OBSC QFE755
URSS 200430Z 15005MPS 9999 -SHRA FEW017 BKN047CB OVC083 13/10 Q1009 WS ALL RWY R06/290055 R02/////// NOSIG RMK R02/15004G07MPS MT OBSC QFE756
URSS 200400Z 18003MPS 9999 -SHRA FEW017 BKN047CB OVC083 13/10 Q1009 WS ALL RWY R06/290055 R02/////// NOSIG RMK R02/16003G06MPS MT OBSC QFE756
URSS 200330Z 17004MPS 9999 -SHRA FEW019 BKN032CB OVC083 13/10 Q1009 WS ALL RWY R06/290055 R02/////// NOSIG RMK R02/19005MPS MT OBSC QFE756
URSS 200300Z 19003MPS 9999 FEW018 BKN030CB OVC083 13/10 Q1009 WS ALL RWY R06/290055 R02/////// NOSIG RMK R02/19005MPS MT OBSC QFE756
URSS 200230Z 16004MPS 9999 FEW014 BKN030CB OVC083 13/10 Q1009 WS ALL RWY R06/290055 R02/////// NOSIG RMK R02/15004G07MPS MT OBSC QFE756
URSS 200200Z 15005MPS 9999 FEW015 BKN032CB OVC083 13/10 Q1010 WS ALL RWY R06/290055 R02/////// NOSIG RMK R02/14003G06MPS MT OBSC QFE756
URSS 200130Z 14004MPS 9999 FEW012 BKN040CB OVC083 13/09 Q1010 WS ALL RWY R06/290055 R02/////// NOSIG RMK R02/14004G07MPS MT OBSC QFE756
URSS 200100Z 16003MPS 9999 FEW013 BKN035CB OVC083 13/10 Q1010 WS ALL RWY R06/290055 R02/////// NOSIG RMK R02/15004G08MPS MT OBSC QFE756
URSS 200030Z 14004MPS 9999 FEW013 BKN035CB OVC083 13/10 Q1010 WS ALL RWY R06/290055 R02/////// NOSIG RMK R02/14004G08MPS MT OBSC QFE757
URSS 200000Z 14004MPS 9999 FEW012 BKN030CB OVC083 13/09 Q1011 WS ALL RWY R06/290055 R02/////// NOSIG RMK R02/14004G08MPS MT OBSC QFE757
URSS 192330Z 17004MPS 9999 FEW011 BKN030CB OVC083 13/11 Q1011 WS ALL RWY R06/290055 R02/////// NOSIG RMK R02/15004G07MPS MT OBSC QFE757
URSS 192300Z 18004MPS 9999 FEW011 BKN030CB OVC083 13/11 Q1011 WS ALL RWY R06/290055 R02/////// NOSIG RMK R02/16003G07MPS MT OBSC QFE757
URSS 192230Z 18004MPS 9999 FEW010 BKN029CB OVC083 13/11 Q1011 WS ALL RWY R06/290055 R02/////// NOSIG RMK R02/17004MPS MT OBSC QFE757
URSS 192200Z 18005MPS 9999 FEW010 BKN029CB OVC083 13/11 Q1012 WS ALL RWY R06/290055 R02/////// NOSIG RMK R02/18005G08MPS MT OBSC QFE758
URSS 192130Z 20005MPS 9999 SCT010 OVC029CB 13/11 Q1012 WS ALL RWY R06/290055 R02/////// NOSIG RMK R02/20006G09MPS MT OBSC QFE758
URSS 192100Z 20006MPS 9999 SCT010 OVC029CB 13/11 Q1012 WS ALL RWY R06/290055 R02/////// NOSIG RMK R02/19006MPS MT OBSC QFE758
URSS 192030Z 17005MPS 9999 -SHRA SCT010 OVC032CB 13/11 Q1012 WS ALL RWY R06/290055 R02/////// NOSIG RMK R02/15004G07MPS MT OBSC QFE758
URSS 192000Z 16007MPS 9999 SCT010 OVC032CB 13/10 Q1013 WS ALL RWY R06/190060 R02/////// NOSIG RMK R02/15006G09MPS MT OBSC QFE758
URSS 191930Z 15007MPS 9999 FEW015 OVC037CB 13/10 Q1013 WS ALL RWY R06/190060 R02/////// NOSIG RMK R02/14006G11MPS MT OBSC QFE758
URSS 191900Z 14005MPS 9999 FEW015 OVC037CB 13/10 Q1013 WS ALL RWY R06/190060 R02/////// NOSIG RMK R02/13005G10MPS MT OBSC QFE758
URSS 191830Z 16007MPS 9999 FEW015 OVC037CB 13/10 Q1013 WS ALL RWY R06/190060 R02/////// NOSIG RMK R02/16004G07MPS MT OBSC QFE759
URSS 191800Z 14007MPS 9999 -SHRA FEW015 OVC037CB 13/09 Q1014 WS ALL RWY R06/190060 R02/////// NOSIG RMK R02/14006G10MPS MT OBSC QFE759
URSS 191730Z 15007MPS 9999 -SHRA SCT015 OVC040CB 13/10 Q1014 WS ALL RWY R06/190060 R02/////// NOSIG RMK R02/16005G09MPS MT OBSC QFE759
URSS 191700Z 15007MPS 9999 -SHRA SCT013 OVC040CB 14/10 Q1014 WS ALL RWY R06/090070 R02/////// NOSIG RMK R02/16006G09MPS MT OBSC QFE759
URSS 191630Z 15007MPS 9999 BKN013 OVC043CB 14/09 Q1014 WS ALL RWY R06/090070 R02/////// NOSIG RMK R02/15004G11MPS MT OBSC QFE759
URSS 191600Z 15006MPS 9999 BKN015 OVC049CB 14/10 Q1014 WS ALL RWY R06/090070 R02/////// NOSIG RMK R02/15004G08MPS MT OBSC QFE759
URSS 191530Z 17005MPS 9999 BKN016 OVC055CB 14/10 Q1015 WS ALL RWY R06/090070 R02/////// NOSIG RMK R02/18006G09MPS MT OBSC QFE760
URSS 191500Z 19005MPS 9999 SCT014 OVC057CB 14/10 Q1015 WS ALL RWY R06/090070 R02/////// NOSIG RMK R02/18006G09MPS MT OBSC QFE760
URSS 191430Z 17006MPS 9999 FEW034CB OVC073 14/09 Q1015 WS ALL RWY R06/090070 R02/////// NOSIG RMK R02/17005G08MPS MT OBSC QFE760
URSS 191400Z 17004MPS 9999 FEW034CB OVC073 14/09 Q1015 WS ALL RWY R06/290055 R02/////// NOSIG RMK R02/16005G09MPS MT OBSC QFE760
URSS 191330Z 14006MPS 9999 FEW016 SCT042CB OVC073 15/10 Q1015 WS ALL RWY R06/290055 R02/////// NOSIG RMK R02/14005G10MPS MT OBSC QFE760
URSS 191300Z 14006MPS 9999 FEW013 SCT037CB OVC080 15/10 Q1015 WS ALL RWY R06/290055 R02/////// NOSIG RMK R02/15005G09MPS MT OBSC QFE760
URSS 191230Z 13006MPS 9999 FEW012 BKN037CB OVC080 14/11 Q1015 WS ALL RWY R06/290055 R02/////// NOSIG RMK R02/14003G07MPS MT OBSC QFE760
URSS 191200Z 14004MPS 100V170 9999 FEW012 BKN037CB OVC080 14/11 Q1016 WS ALL RWY R06/290055 R02/////// NOSIG RMK R02/14003G06MPS MT OBSC QFE761
URSS 191130Z 15005MPS 9999 -SHRA FEW013 BKN042CB OVC080 14/11 Q1016 WS ALL RWY R06/290055 R02/////// NOSIG RMK R02/16004G07MPS MT OBSC QFE761
URSS 191100Z 13004MPS 9999 -SHRA FEW013 BKN042CB OVC080 14/11 Q1017 WS ALL RWY R06/290055 R02/////// NOSIG RMK R02/13003MPS MT OBSC QFE761
URSS 191030Z 15005MPS 9999 -SHRA FEW015 BKN039CB OVC080 14/11 Q1017 WS ALL RWY R06/290055 R02/////// NOSIG RMK R02/15003G06MPS MT OBSC QFE762
URSS 191000Z 15005MPS 9999 -SHRA FEW016 BKN039CB OVC080 14/11 Q1017 WS ALL RWY R06/290055 R02/////// NOSIG RMK R02/15004G07MPS MT OBSC QFE762
URSS 190930Z 15006MPS 9999 -SHRA FEW016 BKN039CB OVC080 15/11 Q1017 WS ALL RWY R06/290055 R02/////// NOSIG RMK R02/16005G08MPS MT OBSC QFE762
URSS 190900Z 15005MPS 9999 -SHRA FEW018 BKN042CB OVC080 14/10 Q1018 WS ALL RWY R06/190055 R02/////// NOSIG RMK R02/16004G07MPS MT OBSC QFE762
URSS 190830Z 15004MPS 9999 -SHRA FEW016 BKN039CB OVC080 14/11 Q1018 WS ALL RWY R06/190055 R02/////// NOSIG RMK R02/15004MPS MT OBSC QFE762
URSS 190800Z 15004MPS 9999 -SHRA FEW016 BKN039CB OVC080 14/12 Q1018 WS ALL RWY R06/090070 R02/////// NOSIG RMK R02/16003G06MPS MT OBSC QFE763
URSS 190730Z 21004MPS 160V230 9999 SCT010 BKN024CB 14/11 Q1019 WS ALL RWY R06/090070 R02/////// NOSIG RMK R02/20004G07MPS MT OBSC QFE763
URSS 190700Z 22005MPS 9999 SCT010 BKN023CB 14/12 Q1018 WS ALL RWY R06/090070 R02/////// NOSIG RMK R02/21007MPS MT OBSC QFE763
URSS 190630Z 20003MPS 140V240 9999 FEW050CB OVC110 15/12 Q1018 WS ALL RWY R06/090070 R02/////// NOSIG RMK R02/19003G06MPS QFE762
URSS 190600Z 13004MPS 9999 FEW050CB OVC110 14/10 Q1017 R06/090070 R02/////// NOSIG RMK R02/13003G06MPS QFE762
URSS 190530Z 17004MPS 9999 FEW050CB OVC110 14/09 Q1018 R06/090070 R02/////// NOSIG RMK R02/18004MPS QFE762
URSS 190500Z 07003MPS 040V130 9999 FEW050CB OVC130 13/07 Q1017 R06/090070 R02/////// NOSIG RMK R02/33003G06MPS QFE762
URSS 190430Z 07004MPS 9999 FEW050CB OVC130 12/08 Q1018 R06/090070 R02/////// NOSIG RMK R02/06004MPS QFE762
URSS 190400Z 07004MPS 9999 FEW050CB OVC130 10/08 Q1019 R06/090070 R02/////// NOSIG RMK R02/05003MPS QFE763
URSS 190330Z 07003MPS 9999 NSC 10/08 Q1019 R06/090070 R02/////// NOSIG RMK R02/06003MPS QFE763
URSS 190300Z 00000MPS 9999 NSC 10/07 Q1019 R06/090070 R02/////// NOSIG RMK R02/05003MPS QFE763
URSS 190230Z 08003MPS 9999 NSC 09/07 Q1018 R06/090070 R02/////// NOSIG RMK R02/05002MPS QFE763
URSS 190200Z 00000MPS 9999 NSC 09/07 Q1018 R06/090070 R02/////// NOSIG RMK R02/07002MPS QFE763
URSS 190130Z 09002MPS 9999 NSC 10/07 Q1018 R06/090070 R02/////// NOSIG RMK R02/06002MPS QFE763
URSS 190100Z 07002MPS 9999 NSC 09/06 Q1018 R06/090070 R02/////// NOSIG RMK R02/06002MPS QFE762
URSS 190030Z 00000MPS 9999 NSC 10/06 Q1018 R06/090070 R02/////// NOSIG RMK R02/04001MPS QFE762